createdAt,value
2019-03-16T00:00:45.364Z,31.20
2019-03-16T00:03:17.731Z,23.00
2019-03-16T00:05:49.806Z,30.65
2019-03-16T00:08:22.027Z,27.25
2019-03-16T00:10:56.283Z,23.25
2019-03-16T00:13:28.866Z,25.77
2019-03-16T00:16:00.688Z,22.27
2019-03-16T00:18:32.604Z,27.20
2019-03-16T00:21:04.848Z,25.00
2019-03-16T00:23:36.829Z,29.77
2019-03-16T00:26:08.630Z,28.98
2019-03-16T00:28:41.897Z,28.98
2019-03-16T00:31:13.986Z,30.25
2019-03-16T00:33:46.342Z,33.30
2019-03-16T00:36:19.179Z,31.40
2019-03-16T00:38:51.331Z,27.15
2019-03-16T00:41:23.469Z,31.65
2019-03-16T00:43:55.740Z,30.00
2019-03-16T00:46:27.983Z,25.97
2019-03-16T00:49:00.156Z,25.88
2019-03-16T00:51:34.181Z,31.48
2019-03-16T00:54:06.451Z,29.45
2019-03-16T00:56:39.337Z,26.07
2019-03-16T00:59:11.411Z,28.95
2019-03-16T01:01:44.441Z,25.00
2019-03-16T01:04:16.610Z,22.60
2019-03-16T01:06:48.578Z,24.98
2019-03-16T01:09:20.770Z,24.55
2019-03-16T01:11:53.379Z,22.60
2019-03-16T01:14:25.309Z,26.73
2019-03-16T01:16:57.348Z,24.50
2019-03-16T01:19:29.788Z,28.12
2019-03-16T01:22:03.079Z,29.02
2019-03-16T01:24:35.200Z,27.30
2019-03-16T01:27:14.488Z,45.00
2019-03-16T01:29:47.681Z,24.52
2019-03-16T01:32:19.816Z,24.65
2019-03-16T01:34:51.712Z,30.37
2019-03-16T01:37:25.372Z,23.62
2019-03-16T01:39:57.564Z,20.27
2019-03-16T01:42:30.896Z,22.20
2019-03-16T01:45:02.910Z,19.80
2019-03-16T01:47:54.039Z,24.72
2019-03-16T01:50:26.611Z,20.65
2019-03-16T01:52:58.635Z,23.60
2019-03-16T01:55:31.845Z,22.75
2019-03-16T01:58:03.961Z,20.40
2019-03-16T02:00:36.176Z,21.35
2019-03-16T02:03:11.020Z,29.87
2019-03-16T02:05:43.252Z,22.67
2019-03-16T02:08:15.499Z,19.25
2019-03-16T02:10:56.828Z,20.77
2019-03-16T02:13:28.277Z,22.98
2019-03-16T02:16:10.940Z,21.62
2019-03-16T02:18:37.520Z,20.52
2019-03-16T02:21:09.664Z,19.73
2019-03-16T02:23:41.804Z,20.50
2019-03-16T02:26:15.763Z,20.00
2019-03-16T02:28:47.656Z,17.00
2019-03-16T02:31:20.590Z,20.52
2019-03-16T02:33:52.754Z,19.55
2019-03-16T02:36:27.775Z,19.95
2019-03-16T02:38:59.967Z,21.17
2019-03-16T02:41:32.071Z,17.37
2019-03-16T02:44:11.508Z,20.70
2019-03-16T02:46:47.834Z,16.75
2019-03-16T02:49:20.570Z,31.65
2019-03-16T02:51:55.573Z,23.12
2019-03-16T02:54:28.250Z,17.52
2019-03-16T02:57:00.528Z,19.62
2019-03-16T02:59:33.043Z,17.90
2019-03-16T03:02:05.228Z,21.25
2019-03-16T03:04:45.689Z,18.05
2019-03-16T03:07:14.930Z,23.33
2019-03-16T03:09:47.254Z,19.40
2019-03-16T03:12:19.570Z,19.60
2019-03-16T03:14:52.629Z,24.12
2019-03-16T03:17:25.245Z,17.27
2019-03-16T03:19:57.393Z,20.65
2019-03-16T03:22:48.938Z,21.42
2019-03-16T03:25:21.410Z,16.90
2019-03-16T03:27:53.287Z,18.62
2019-03-16T03:30:25.694Z,23.47
2019-03-16T03:33:00.097Z,19.35
2019-03-16T03:35:32.441Z,20.08
2019-03-16T03:38:07.691Z,21.70
2019-03-16T03:40:40.538Z,19.52
2019-03-16T03:43:12.759Z,19.92
2019-03-16T03:45:45.622Z,18.25
2019-03-16T03:48:18.606Z,18.48
2019-03-16T03:50:50.897Z,21.70
2019-03-16T03:53:23.209Z,20.50
2019-03-16T03:55:56.353Z,17.15
2019-03-16T03:58:28.511Z,21.42
2019-03-16T04:01:00.697Z,19.25
2019-03-16T04:03:32.845Z,17.73
2019-03-16T04:06:06.609Z,18.35
2019-03-16T04:08:41.426Z,25.30
2019-03-16T04:11:13.876Z,22.17
2019-03-16T04:13:45.815Z,20.88
2019-03-16T04:16:18.096Z,16.62
2019-03-16T04:19:10.886Z,16.25
2019-03-16T04:21:43.239Z,16.77
2019-03-16T04:24:15.189Z,17.45
2019-03-16T04:26:49.729Z,21.20
2019-03-16T04:29:21.487Z,22.17
2019-03-16T04:31:54.213Z,18.40
2019-03-16T04:34:29.537Z,23.42
2019-03-16T04:37:04.744Z,23.50
2019-03-16T04:39:37.120Z,20.95
2019-03-16T04:42:11.512Z,28.73
2019-03-16T04:44:45.051Z,19.30
2019-03-16T04:47:19.725Z,24.92
2019-03-16T04:49:54.394Z,19.77
2019-03-16T04:52:28.569Z,18.82
2019-03-16T04:55:00.898Z,24.80
2019-03-16T04:57:32.905Z,18.55
2019-03-16T05:00:06.191Z,20.40
2019-03-16T05:02:38.234Z,17.12
2019-03-16T05:05:28.825Z,18.62
2019-03-16T05:08:03.248Z,18.55
2019-03-16T05:10:39.611Z,18.23
2019-03-16T05:13:11.680Z,19.65
2019-03-16T05:15:43.775Z,18.95
2019-03-16T05:18:16.163Z,20.25
2019-03-16T05:20:59.650Z,22.15
2019-03-16T05:23:31.693Z,20.17
2019-03-16T05:26:03.947Z,16.90
2019-03-16T05:28:36.092Z,19.30
2019-03-16T05:31:08.121Z,17.40
2019-03-16T05:33:40.399Z,19.73
2019-03-16T05:36:12.327Z,23.32
2019-03-16T05:38:45.025Z,25.27
2019-03-16T05:41:16.936Z,22.45
2019-03-16T05:43:48.956Z,22.20
2019-03-16T05:46:21.003Z,18.37
2019-03-16T05:48:53.016Z,21.35
2019-03-16T05:51:25.197Z,19.37
2019-03-16T05:53:57.463Z,23.15
2019-03-16T05:56:32.541Z,23.07
2019-03-16T05:59:04.766Z,23.45
2019-03-16T06:01:36.681Z,18.92
2019-03-16T06:04:08.671Z,21.05
2019-03-16T06:06:40.586Z,21.10
2019-03-16T06:09:13.414Z,19.52
2019-03-16T06:11:45.282Z,19.52
2019-03-16T06:14:20.681Z,19.82
2019-03-16T06:16:54.110Z,21.75
2019-03-16T06:19:28.686Z,22.48
2019-03-16T06:22:01.113Z,27.82
2019-03-16T06:24:33.551Z,22.60
2019-03-16T06:27:05.490Z,24.77
2019-03-16T06:29:37.571Z,25.10
2019-03-16T06:32:09.606Z,22.15
2019-03-16T06:34:41.590Z,25.12
2019-03-16T06:37:15.805Z,24.20
2019-03-16T06:39:47.898Z,34.40
2019-03-16T06:42:20.682Z,24.07
2019-03-16T06:44:52.921Z,26.30
2019-03-16T06:47:25.164Z,23.73
2019-03-16T06:50:03.809Z,25.27
2019-03-16T06:52:37.638Z,24.37
2019-03-16T06:55:10.913Z,23.12
2019-03-16T06:57:43.105Z,23.07
2019-03-16T07:00:25.595Z,28.77
2019-03-16T07:02:57.892Z,26.73
2019-03-16T07:05:38.184Z,26.55
2019-03-16T07:08:04.240Z,26.95
2019-03-16T07:10:37.737Z,23.18
2019-03-16T07:13:30.595Z,24.32
2019-03-16T07:16:03.290Z,28.85
2019-03-16T07:18:35.431Z,28.10
2019-03-16T07:21:07.891Z,24.87
2019-03-16T07:23:40.499Z,25.48
2019-03-16T07:26:15.200Z,24.47
2019-03-16T07:28:46.195Z,29.50
2019-03-16T07:31:18.654Z,28.02
2019-03-16T07:33:51.506Z,23.83
2019-03-16T07:36:23.467Z,25.50
2019-03-16T07:38:55.442Z,25.70
2019-03-16T07:41:27.557Z,25.17
2019-03-16T07:43:59.389Z,25.27
2019-03-16T07:46:31.697Z,26.15
2019-03-16T07:49:04.171Z,25.17
2019-03-16T07:51:37.451Z,28.52
2019-03-16T07:54:09.801Z,25.10
2019-03-16T07:56:42.073Z,30.57
2019-03-16T07:59:13.905Z,29.10
2019-03-16T08:01:45.853Z,25.50
2019-03-16T08:04:37.161Z,27.10
2019-03-16T08:07:15.546Z,27.25
2019-03-16T08:10:11.989Z,28.00
2019-03-16T08:12:45.419Z,25.77
2019-03-16T08:15:17.491Z,27.32
2019-03-16T08:17:49.821Z,25.85
2019-03-16T08:20:23.446Z,27.87
2019-03-16T08:22:55.264Z,26.23
2019-03-16T08:25:30.149Z,30.37
2019-03-16T08:28:22.544Z,27.25
2019-03-16T08:30:56.890Z,29.37
2019-03-16T08:33:29.525Z,26.25
2019-03-16T08:36:21.859Z,29.48
2019-03-16T08:38:54.832Z,28.25
2019-03-16T08:41:27.029Z,27.90
2019-03-16T08:43:59.346Z,30.62
2019-03-16T08:46:31.556Z,30.20
2019-03-16T08:49:03.726Z,27.77
2019-03-16T08:51:36.056Z,27.82
2019-03-16T08:54:28.572Z,28.02
2019-03-16T08:57:01.286Z,26.80
2019-03-16T08:59:33.568Z,25.95
2019-03-16T09:02:07.657Z,26.75
2019-03-16T09:04:40.463Z,27.02
2019-03-16T09:07:12.894Z,26.85
2019-03-16T09:09:44.881Z,26.50
2019-03-16T09:12:16.977Z,27.90
2019-03-16T09:14:49.378Z,26.77
2019-03-16T09:17:21.583Z,27.07
2019-03-16T09:20:13.198Z,25.85
2019-03-16T09:22:45.622Z,25.32
2019-03-16T09:25:19.884Z,27.98
2019-03-16T09:27:53.135Z,25.25
2019-03-16T09:30:25.216Z,24.00
2019-03-16T09:32:57.881Z,23.95
2019-03-16T09:35:30.043Z,28.32
2019-03-16T09:38:05.385Z,23.92
2019-03-16T09:40:37.394Z,28.67
2019-03-16T09:43:29.584Z,24.43
2019-03-16T09:46:03.514Z,27.75
2019-03-16T09:48:36.072Z,28.98
2019-03-16T09:51:08.129Z,28.00
2019-03-16T09:53:42.765Z,25.15
2019-03-16T09:56:15.082Z,28.80
2019-03-16T09:58:47.696Z,29.12
2019-03-16T10:01:20.091Z,33.78
2019-03-16T10:03:52.444Z,28.57
2019-03-16T10:06:24.759Z,24.07
2019-03-16T10:08:57.639Z,25.80
2019-03-16T10:11:30.005Z,25.23
2019-03-16T10:14:02.210Z,25.10
2019-03-16T10:16:35.361Z,24.52
2019-03-16T10:19:07.900Z,30.85
2019-03-16T10:21:59.770Z,25.50
2019-03-16T10:24:55.605Z,29.57
2019-03-16T10:27:28.086Z,28.65
2019-03-16T10:30:00.551Z,27.30
2019-03-16T10:32:33.327Z,28.52
2019-03-16T10:35:07.152Z,27.82
2019-03-16T10:37:39.726Z,32.15
2019-03-16T10:40:15.551Z,28.83
2019-03-16T10:42:47.390Z,28.73
2019-03-16T10:45:19.834Z,29.07
2019-03-16T10:47:52.869Z,30.62
2019-03-16T10:50:26.307Z,32.05
2019-03-16T10:52:58.263Z,32.48
2019-03-16T10:55:30.977Z,27.27
2019-03-16T10:58:02.862Z,26.82
2019-03-16T11:00:35.048Z,26.77
2019-03-16T11:03:07.410Z,33.40
2019-03-16T11:05:39.350Z,27.42
2019-03-16T11:08:11.189Z,30.15
2019-03-16T11:10:43.268Z,27.93
2019-03-16T11:13:35.778Z,32.03
2019-03-16T11:16:08.465Z,26.87
2019-03-16T11:18:41.585Z,28.75
2019-03-16T11:21:13.661Z,31.25
2019-03-16T11:23:49.175Z,31.77
2019-03-16T11:26:21.474Z,29.90
2019-03-16T11:28:53.673Z,36.68
2019-03-16T11:31:25.750Z,29.92
2019-03-16T11:33:57.833Z,28.85
2019-03-16T11:36:30.076Z,29.65
2019-03-16T11:39:03.166Z,31.05
2019-03-16T11:41:38.192Z,35.03
2019-03-16T11:44:23.583Z,48.30
2019-03-16T11:46:51.506Z,51.55
2019-03-16T11:49:23.577Z,47.53
2019-03-16T11:51:55.854Z,50.17
2019-03-16T11:54:28.070Z,50.52
2019-03-16T11:57:00.339Z,55.25
2019-03-16T11:59:51.574Z,54.45
2019-03-16T12:02:25.971Z,52.40
2019-03-16T12:05:04.779Z,42.80
2019-03-16T12:07:36.957Z,48.05
2019-03-16T12:10:12.404Z,55.98
2019-03-16T12:12:47.560Z,54.63
2019-03-16T12:15:19.924Z,54.98
2019-03-16T12:17:53.386Z,53.83
2019-03-16T12:20:26.674Z,47.85
2019-03-16T12:22:58.590Z,41.63
2019-03-16T12:25:30.710Z,44.25
2019-03-16T12:28:04.593Z,43.02
2019-03-16T12:30:36.939Z,49.30
2019-03-16T12:33:09.249Z,52.10
2019-03-16T12:35:41.248Z,57.65
2019-03-16T12:38:14.596Z,52.98
2019-03-16T12:41:06.075Z,54.08
2019-03-16T12:43:38.507Z,53.65
2019-03-16T12:46:10.780Z,52.35
2019-03-16T12:49:03.227Z,57.90
2019-03-16T12:51:35.205Z,62.98
2019-03-16T12:54:07.426Z,71.35
2019-03-16T12:56:39.842Z,78.00
2019-03-16T12:59:32.722Z,69.85
2019-03-16T13:02:04.827Z,67.55
2019-03-16T13:04:36.742Z,63.52
2019-03-16T13:07:08.896Z,60.15
2019-03-16T13:09:42.669Z,51.80
2019-03-16T13:12:14.788Z,50.50
2019-03-16T13:14:47.011Z,65.08
2019-03-16T13:17:19.145Z,58.85
2019-03-16T13:19:51.197Z,58.85
2019-03-16T13:22:24.798Z,55.58
2019-03-16T13:24:56.919Z,59.48
2019-03-16T13:27:29.653Z,52.45
2019-03-16T13:30:01.690Z,58.48
2019-03-16T13:32:33.773Z,55.92
2019-03-16T13:35:07.265Z,54.25
2019-03-16T13:37:39.390Z,62.83
2019-03-16T13:40:15.079Z,50.17
2019-03-16T13:42:47.016Z,47.58
2019-03-16T13:45:19.163Z,49.15
2019-03-16T13:47:52.030Z,76.53
2019-03-16T13:50:24.306Z,59.20
2019-03-16T13:52:56.815Z,50.17
2019-03-16T13:55:29.084Z,55.90
2019-03-16T13:58:01.299Z,48.55
2019-03-16T14:00:33.414Z,55.12
2019-03-16T14:03:06.001Z,52.65
2019-03-16T14:05:38.092Z,48.92
2019-03-16T14:08:11.719Z,57.03
2019-03-16T14:10:44.300Z,47.03
2019-03-16T14:13:16.339Z,51.53
2019-03-16T14:15:48.559Z,49.63
2019-03-16T14:18:20.663Z,51.42
2019-03-16T14:20:52.911Z,56.77
2019-03-16T14:23:26.002Z,42.55
2019-03-16T14:25:58.338Z,47.93
2019-03-16T14:28:34.275Z,51.90
2019-03-16T14:31:06.290Z,47.55
2019-03-16T14:33:38.623Z,46.30
2019-03-16T14:36:11.160Z,47.13
2019-03-16T14:38:44.460Z,52.93
2019-03-16T14:41:16.739Z,45.65
2019-03-16T14:43:48.922Z,51.92
2019-03-16T14:46:20.975Z,46.35
2019-03-16T14:48:53.398Z,45.33
2019-03-16T14:51:27.494Z,48.23
2019-03-16T14:53:59.926Z,52.03
2019-03-16T14:56:31.944Z,52.48
2019-03-16T14:59:03.778Z,50.83
2019-03-16T15:01:35.798Z,47.78
2019-03-16T15:04:08.349Z,49.65
2019-03-16T15:06:40.523Z,49.00
2019-03-16T15:09:12.685Z,57.15
2019-03-16T15:11:44.726Z,44.53
2019-03-16T15:14:21.846Z,45.20
2019-03-16T15:16:50.918Z,50.78
2019-03-16T15:19:22.905Z,44.53
2019-03-16T15:21:56.529Z,49.60
2019-03-16T15:24:28.599Z,49.88
2019-03-16T15:27:01.602Z,48.35
2019-03-16T15:29:34.551Z,46.77
2019-03-16T15:32:06.616Z,45.80
2019-03-16T15:34:38.863Z,54.67
2019-03-16T15:37:10.890Z,49.08
2019-03-16T15:39:43.058Z,52.33
2019-03-16T15:42:15.331Z,48.38
2019-03-16T15:44:48.377Z,49.77
2019-03-16T15:47:20.498Z,56.37
2019-03-16T15:49:52.739Z,50.05
2019-03-16T15:52:24.879Z,63.02
2019-03-16T15:54:57.097Z,61.35
2019-03-16T15:57:29.163Z,50.85
2019-03-16T16:00:01.144Z,52.53
2019-03-16T16:02:33.925Z,49.03
2019-03-16T16:05:07.681Z,45.78
2019-03-16T16:07:41.986Z,52.15
2019-03-16T16:10:17.645Z,48.15
2019-03-16T16:12:51.225Z,46.55
2019-03-16T16:15:23.344Z,48.48
2019-03-16T16:18:14.928Z,50.12
2019-03-16T16:20:46.963Z,49.83
2019-03-16T16:23:21.787Z,48.83
2019-03-16T16:25:53.713Z,54.48
2019-03-16T16:28:26.790Z,58.05
2019-03-16T16:30:58.938Z,47.85
2019-03-16T16:33:31.144Z,48.30
2019-03-16T16:36:03.150Z,51.40
2019-03-16T16:38:35.604Z,54.42
2019-03-16T16:41:07.745Z,46.13
2019-03-16T16:43:39.810Z,46.98
2019-03-16T16:46:11.939Z,48.25
2019-03-16T16:48:44.060Z,50.38
2019-03-16T16:51:19.349Z,60.05
2019-03-16T16:53:55.270Z,48.13
2019-03-16T16:56:27.315Z,60.38
2019-03-16T16:58:59.798Z,56.40
2019-03-16T17:01:31.632Z,50.78
2019-03-16T17:04:06.795Z,59.30
2019-03-16T17:06:39.947Z,55.45
2019-03-16T17:09:11.874Z,54.60
2019-03-16T17:11:44.215Z,51.77
2019-03-16T17:14:16.496Z,67.00
2019-03-16T17:16:48.634Z,64.32
2019-03-16T17:19:23.775Z,59.05
2019-03-16T17:21:56.101Z,66.92
2019-03-16T17:24:29.053Z,72.08
2019-03-16T17:27:01.039Z,64.40
2019-03-16T17:29:34.169Z,62.75
2019-03-16T17:32:06.513Z,66.53
2019-03-16T17:34:41.096Z,58.25
2019-03-16T17:37:21.969Z,55.35
2019-03-16T17:39:54.234Z,58.35
2019-03-16T17:42:26.354Z,61.55
2019-03-16T17:44:58.829Z,58.10
2019-03-16T17:47:30.911Z,71.80
2019-03-16T17:50:02.877Z,60.88
2019-03-16T17:52:36.349Z,65.30
2019-03-16T17:55:11.429Z,68.45
2019-03-16T17:57:45.430Z,65.55
2019-03-16T18:00:19.556Z,65.90
2019-03-16T18:02:52.623Z,56.10
2019-03-16T18:05:25.172Z,64.97
2019-03-16T18:07:58.631Z,67.62
2019-03-16T18:10:30.729Z,59.95
2019-03-16T18:13:02.771Z,57.75
2019-03-16T18:15:34.980Z,58.68
2019-03-16T18:18:07.103Z,60.38
2019-03-16T18:20:39.358Z,59.40
2019-03-16T18:23:11.401Z,55.52
2019-03-16T18:25:43.508Z,57.05
2019-03-16T18:28:15.720Z,63.33
2019-03-16T18:30:49.010Z,62.73
2019-03-16T18:33:20.965Z,65.32
2019-03-16T18:35:53.323Z,61.20
2019-03-16T18:38:25.475Z,63.10
2019-03-16T18:40:57.421Z,56.98
2019-03-16T18:43:29.480Z,56.83
2019-03-16T18:46:01.471Z,71.97
2019-03-16T18:48:33.457Z,62.45
2019-03-16T18:51:05.648Z,61.35
2019-03-16T18:53:37.728Z,56.23
2019-03-16T18:56:09.934Z,57.08
2019-03-16T18:58:41.993Z,58.98
2019-03-16T19:01:14.216Z,54.77
2019-03-16T19:03:46.266Z,63.02
2019-03-16T19:06:18.215Z,56.40
2019-03-16T19:08:50.463Z,57.50
2019-03-16T19:11:22.559Z,56.90
2019-03-16T19:13:54.729Z,56.28
2019-03-16T19:16:26.676Z,58.33
2019-03-16T19:18:58.701Z,56.05
2019-03-16T19:21:30.992Z,55.95
2019-03-16T19:24:03.122Z,63.23
2019-03-16T19:26:35.192Z,58.60
2019-03-16T19:29:07.458Z,57.85
2019-03-16T19:31:40.396Z,55.43
2019-03-16T19:34:12.335Z,56.85
2019-03-16T19:36:44.592Z,61.85
2019-03-16T19:39:16.917Z,59.38
2019-03-16T19:41:49.252Z,59.80
2019-03-16T19:44:21.524Z,63.95
2019-03-16T19:46:54.207Z,64.92
2019-03-16T19:49:26.431Z,62.27
2019-03-16T19:51:58.356Z,63.80
2019-03-16T19:54:30.541Z,63.73
2019-03-16T19:57:14.970Z,67.25
2019-03-16T19:59:36.984Z,71.65
2019-03-16T20:02:09.234Z,61.02
2019-03-16T20:04:41.136Z,64.42
2019-03-16T20:07:19.260Z,64.82
2019-03-16T20:09:47.113Z,63.92
2019-03-16T20:12:19.354Z,60.85
2019-03-16T20:14:52.275Z,58.92
2019-03-16T20:17:24.814Z,59.48
2019-03-16T20:19:56.958Z,63.68
2019-03-16T20:22:30.226Z,59.23
2019-03-16T20:25:01.997Z,61.88
2019-03-16T20:27:34.546Z,61.70
2019-03-16T20:30:09.668Z,64.25
2019-03-16T20:32:43.165Z,61.83
2019-03-16T20:35:34.593Z,61.68
2019-03-16T20:38:06.964Z,66.22
2019-03-16T20:40:39.145Z,69.05
2019-03-16T20:43:11.288Z,65.12
2019-03-16T20:45:43.697Z,64.95
2019-03-16T20:48:15.691Z,64.75
2019-03-16T20:50:47.648Z,66.22
2019-03-16T20:53:19.463Z,67.87
2019-03-16T20:55:51.542Z,64.10
2019-03-16T20:58:23.714Z,67.10
2019-03-16T21:00:58.272Z,73.70
2019-03-16T21:03:30.565Z,73.42
2019-03-16T21:06:03.097Z,65.50
2019-03-16T21:08:35.370Z,64.30
2019-03-16T21:11:07.852Z,63.70
2019-03-16T21:13:41.264Z,65.55
2019-03-16T21:16:14.234Z,61.60
2019-03-16T21:18:46.299Z,61.88
2019-03-16T21:21:18.493Z,64.87
2019-03-16T21:23:50.753Z,64.22
2019-03-16T21:26:23.213Z,62.60
2019-03-16T21:28:55.484Z,61.70
2019-03-16T21:31:27.742Z,60.28
2019-03-16T21:34:00.518Z,59.93
2019-03-16T21:36:41.408Z,57.90
2019-03-16T21:39:09.957Z,58.10
2019-03-16T21:41:44.404Z,60.70
2019-03-16T21:44:15.956Z,57.78
2019-03-16T21:46:48.192Z,64.10
2019-03-16T21:49:21.047Z,57.50
2019-03-16T21:51:53.155Z,58.38
2019-03-16T21:54:25.780Z,60.12
2019-03-16T21:56:58.090Z,54.95
2019-03-16T21:59:30.205Z,60.05
2019-03-16T22:02:02.143Z,59.98
2019-03-16T22:04:34.754Z,56.13
2019-03-16T22:07:06.955Z,54.70
2019-03-16T22:09:39.124Z,56.95
2019-03-16T22:12:11.650Z,54.70
2019-03-16T22:14:43.772Z,58.45
2019-03-16T22:17:15.779Z,60.35
2019-03-16T22:19:48.031Z,59.85
2019-03-16T22:22:20.214Z,56.85
2019-03-16T22:24:52.228Z,56.63
2019-03-16T22:27:24.715Z,53.95
2019-03-16T22:29:57.075Z,53.35
2019-03-16T22:32:29.279Z,52.90
2019-03-16T22:35:01.283Z,51.08
2019-03-16T22:37:34.653Z,53.83
2019-03-16T22:40:09.463Z,60.00
2019-03-16T22:42:41.505Z,59.50
2019-03-16T22:45:15.698Z,52.98
2019-03-16T22:47:47.741Z,50.73
2019-03-16T22:50:22.519Z,51.58
2019-03-16T22:52:54.729Z,58.90
2019-03-16T22:55:26.586Z,51.58
2019-03-16T22:57:58.942Z,55.15
2019-03-16T23:00:32.226Z,52.95
2019-03-16T23:03:04.419Z,56.98
2019-03-16T23:05:36.529Z,53.30
2019-03-16T23:08:27.989Z,57.50
2019-03-16T23:10:59.817Z,56.42
2019-03-16T23:13:31.971Z,61.75
2019-03-16T23:16:04.267Z,53.52
2019-03-16T23:18:36.655Z,51.77
2019-03-16T23:21:08.718Z,49.20
2019-03-16T23:23:42.622Z,50.40
2019-03-16T23:26:14.807Z,55.88
2019-03-16T23:28:47.142Z,53.02
2019-03-16T23:31:19.400Z,51.13
2019-03-16T23:33:51.919Z,52.90
2019-03-16T23:36:24.249Z,54.50
2019-03-16T23:38:58.117Z,56.48
2019-03-16T23:41:30.768Z,50.63
2019-03-16T23:44:03.013Z,51.00
2019-03-16T23:46:35.022Z,51.05
2019-03-16T23:49:07.358Z,52.35
2019-03-16T23:51:39.677Z,53.30
2019-03-16T23:54:11.827Z,51.65
2019-03-16T23:56:44.465Z,52.83
2019-03-16T23:59:16.560Z,59.13
